createdAt,value
2019-05-19T00:00:37.928Z,33.80
2019-05-19T00:03:05.971Z,34.30
2019-05-19T00:05:33.973Z,32.80
2019-05-19T00:08:01.954Z,32.43
2019-05-19T00:10:30.009Z,36.03
2019-05-19T00:12:58.072Z,35.20
2019-05-19T00:15:26.136Z,33.47
2019-05-19T00:17:54.113Z,34.60
2019-05-19T00:20:22.076Z,33.40
2019-05-19T00:22:50.048Z,34.97
2019-05-19T00:25:18.079Z,33.47
2019-05-19T00:27:45.973Z,34.50
2019-05-19T00:30:14.165Z,35.03
2019-05-19T00:32:42.245Z,33.67
2019-05-19T00:35:10.194Z,33.97
2019-05-19T00:37:38.208Z,35.87
2019-05-19T00:40:06.242Z,35.80
2019-05-19T00:42:34.232Z,35.70
2019-05-19T00:45:02.340Z,33.63
2019-05-19T00:47:30.263Z,36.30
2019-05-19T00:49:58.207Z,35.30
2019-05-19T00:52:26.178Z,35.67
2019-05-19T00:54:54.163Z,34.10
2019-05-19T00:57:22.337Z,34.00
2019-05-19T00:59:50.417Z,33.27
2019-05-19T01:02:18.481Z,36.30
2019-05-19T01:04:46.528Z,33.73
2019-05-19T01:07:14.497Z,34.07
2019-05-19T01:09:42.532Z,34.30
2019-05-19T01:12:10.432Z,33.23
2019-05-19T01:14:38.414Z,32.70
2019-05-19T01:17:06.392Z,34.57
2019-05-19T01:19:34.362Z,34.73
2019-05-19T01:22:02.375Z,36.20
2019-05-19T01:24:30.339Z,33.40
2019-05-19T01:26:58.401Z,34.80
2019-05-19T01:29:26.340Z,34.67
2019-05-19T01:31:54.328Z,33.50
2019-05-19T01:34:22.277Z,35.27
2019-05-19T01:36:50.231Z,35.73
2019-05-19T01:39:18.200Z,34.20
2019-05-19T01:41:46.197Z,35.33
2019-05-19T01:44:14.167Z,33.90
2019-05-19T01:46:42.111Z,34.17
2019-05-19T01:49:10.093Z,34.70
2019-05-19T01:51:38.073Z,34.53
2019-05-19T01:54:06.016Z,34.17
2019-05-19T01:56:34.022Z,35.17
2019-05-19T01:59:02.081Z,33.50
2019-05-19T02:01:30.126Z,35.47
2019-05-19T02:03:58.097Z,32.70
2019-05-19T02:06:26.100Z,34.97
2019-05-19T02:08:54.044Z,32.50
2019-05-19T02:11:22.047Z,33.00
2019-05-19T02:13:50.089Z,33.43
2019-05-19T02:16:18.090Z,31.30
2019-05-19T02:18:46.138Z,31.77
2019-05-19T02:21:14.116Z,33.43
2019-05-19T02:23:42.094Z,34.40
2019-05-19T02:26:10.081Z,35.27
2019-05-19T02:28:38.111Z,33.97
2019-05-19T02:31:06.108Z,34.50
2019-05-19T02:33:35.781Z,35.30
2019-05-19T02:36:03.774Z,32.83
2019-05-19T02:38:31.734Z,33.37
2019-05-19T02:41:00.590Z,33.47
2019-05-19T02:43:28.584Z,33.57
2019-05-19T02:45:59.084Z,33.27
2019-05-19T02:48:28.418Z,33.80
2019-05-19T02:50:57.943Z,32.77
2019-05-19T02:53:25.893Z,34.90
2019-05-19T02:55:54.950Z,33.20
2019-05-19T02:58:23.172Z,33.27
2019-05-19T03:00:51.126Z,32.27
2019-05-19T03:03:19.082Z,33.07
2019-05-19T03:05:47.125Z,33.20
2019-05-19T03:08:15.022Z,32.50
2019-05-19T03:10:43.021Z,34.23
2019-05-19T03:13:11.094Z,31.70
2019-05-19T03:15:39.164Z,31.73
2019-05-19T03:18:07.206Z,32.10
2019-05-19T03:20:35.192Z,33.47
2019-05-19T03:23:03.187Z,32.53
2019-05-19T03:25:31.258Z,32.10
2019-05-19T03:27:59.290Z,32.33
2019-05-19T03:30:34.262Z,33.13
2019-05-19T03:33:03.358Z,32.50
2019-05-19T03:35:31.412Z,32.53
2019-05-19T03:37:59.481Z,34.50
2019-05-19T03:40:27.443Z,36.73
2019-05-19T03:42:55.511Z,33.70
2019-05-19T03:45:23.488Z,33.93
2019-05-19T03:47:51.424Z,33.90
2019-05-19T03:50:19.390Z,36.50
2019-05-19T03:52:47.375Z,34.27
2019-05-19T03:55:15.372Z,33.53
2019-05-19T03:57:43.476Z,32.37
2019-05-19T04:00:11.503Z,33.57
2019-05-19T04:02:39.485Z,31.57
2019-05-19T04:05:07.887Z,31.03
2019-05-19T04:07:35.930Z,32.83
2019-05-19T04:10:05.403Z,30.60
2019-05-19T04:12:33.383Z,31.00
2019-05-19T04:15:01.363Z,30.57
2019-05-19T04:17:29.424Z,32.37
2019-05-19T04:19:57.409Z,30.07
2019-05-19T04:22:25.361Z,29.40
2019-05-19T04:24:53.384Z,30.27
2019-05-19T04:27:21.333Z,30.57
2019-05-19T04:29:49.372Z,31.73
2019-05-19T04:32:17.334Z,31.80
2019-05-19T04:34:45.338Z,30.80
2019-05-19T04:37:13.398Z,28.53
2019-05-19T04:39:41.351Z,30.07
2019-05-19T04:42:09.333Z,29.20
2019-05-19T04:44:37.419Z,28.87
2019-05-19T04:47:05.470Z,30.60
2019-05-19T04:49:33.541Z,31.97
2019-05-19T04:52:06.681Z,30.53
2019-05-19T04:54:31.320Z,30.80
2019-05-19T04:56:59.383Z,30.90
2019-05-19T04:59:27.380Z,30.50
2019-05-19T05:01:55.461Z,30.00
2019-05-19T05:04:28.781Z,30.60
2019-05-19T05:06:53.201Z,31.30
2019-05-19T05:09:21.218Z,30.80
2019-05-19T05:11:49.261Z,32.43
2019-05-19T05:14:17.228Z,33.37
2019-05-19T05:16:45.202Z,32.10
2019-05-19T05:19:13.257Z,32.10
2019-05-19T05:21:41.234Z,31.97
2019-05-19T05:24:09.228Z,29.87
2019-05-19T05:26:37.191Z,31.10
2019-05-19T05:29:05.176Z,29.60
2019-05-19T05:31:33.094Z,29.97
2019-05-19T05:34:01.108Z,29.07
2019-05-19T05:36:29.136Z,29.70
2019-05-19T05:38:57.109Z,30.70
2019-05-19T05:41:25.104Z,29.80
2019-05-19T05:43:53.048Z,33.00
2019-05-19T05:46:21.052Z,31.97
2019-05-19T05:48:49.021Z,31.33
2019-05-19T05:51:16.998Z,32.00
2019-05-19T05:53:45.066Z,31.03
2019-05-19T05:56:13.009Z,31.03
2019-05-19T05:58:40.986Z,31.03
2019-05-19T06:01:09.040Z,31.17
2019-05-19T06:03:37.038Z,29.83
2019-05-19T06:06:05.194Z,30.70
2019-05-19T06:08:33.275Z,30.13
2019-05-19T06:11:01.240Z,30.70
2019-05-19T06:13:29.293Z,31.90
2019-05-19T06:15:57.277Z,31.03
2019-05-19T06:18:25.224Z,29.90
2019-05-19T06:20:53.236Z,30.60
2019-05-19T06:23:21.393Z,30.17
2019-05-19T06:25:49.437Z,27.90
2019-05-19T06:28:17.409Z,28.70
2019-05-19T06:30:45.388Z,27.57
2019-05-19T06:33:13.360Z,28.63
2019-05-19T06:35:41.348Z,28.40
2019-05-19T06:38:09.495Z,28.53
2019-05-19T06:40:37.501Z,29.90
2019-05-19T06:43:05.583Z,30.20
2019-05-19T06:45:33.555Z,29.07
2019-05-19T06:48:01.524Z,28.77
2019-05-19T06:50:29.445Z,28.87
2019-05-19T06:53:12.828Z,29.97
2019-05-19T06:55:27.194Z,28.37
2019-05-19T06:57:55.190Z,30.40
2019-05-19T07:00:23.316Z,30.80
2019-05-19T07:02:51.247Z,30.83
2019-05-19T07:05:19.375Z,29.40
2019-05-19T07:07:47.379Z,29.87
2019-05-19T07:10:15.454Z,29.47
2019-05-19T07:12:43.550Z,29.17
2019-05-19T07:15:11.946Z,31.73
2019-05-19T07:17:39.871Z,29.63
2019-05-19T07:20:07.972Z,29.67
2019-05-19T07:22:37.822Z,30.83
2019-05-19T07:25:05.966Z,29.87
2019-05-19T07:27:34.063Z,30.20
2019-05-19T07:30:02.079Z,30.37
2019-05-19T07:32:30.169Z,29.33
2019-05-19T07:34:58.228Z,28.83
2019-05-19T07:37:26.282Z,31.07
2019-05-19T07:39:54.286Z,29.13
2019-05-19T07:42:22.441Z,31.80
2019-05-19T07:44:50.635Z,29.00
2019-05-19T07:47:18.671Z,29.17
2019-05-19T07:49:46.719Z,29.33
2019-05-19T07:52:14.769Z,26.43
2019-05-19T07:54:42.836Z,26.43
2019-05-19T07:57:10.885Z,27.87
2019-05-19T07:59:38.854Z,27.43
2019-05-19T08:02:06.927Z,27.73
2019-05-19T08:04:35.061Z,28.43
2019-05-19T08:07:03.052Z,27.07
2019-05-19T08:09:31.141Z,27.90
2019-05-19T08:11:59.087Z,31.00
2019-05-19T08:14:27.395Z,27.67
2019-05-19T08:16:55.484Z,28.60
2019-05-19T08:19:23.395Z,29.57
2019-05-19T08:21:51.508Z,28.47
2019-05-19T08:24:19.453Z,26.27
2019-05-19T08:26:47.652Z,26.47
2019-05-19T08:29:15.923Z,28.17
2019-05-19T08:31:43.953Z,27.50
2019-05-19T08:34:11.965Z,27.80
2019-05-19T08:36:40.059Z,26.87
2019-05-19T08:39:08.043Z,26.70
2019-05-19T08:41:36.081Z,27.53
2019-05-19T08:44:04.347Z,28.40
2019-05-19T08:46:32.895Z,28.53
2019-05-19T08:49:00.898Z,28.70
2019-05-19T08:51:28.884Z,28.37
2019-05-19T08:53:57.144Z,28.20
2019-05-19T08:56:25.203Z,26.20
2019-05-19T08:58:53.305Z,29.27
2019-05-19T09:01:21.373Z,28.70
2019-05-19T09:03:49.406Z,26.97
2019-05-19T09:06:17.566Z,29.67
2019-05-19T09:08:45.607Z,27.77
2019-05-19T09:11:13.547Z,29.20
2019-05-19T09:13:41.739Z,27.77
2019-05-19T09:16:09.708Z,27.57
2019-05-19T09:18:38.012Z,28.40
2019-05-19T09:21:06.086Z,28.20
2019-05-19T09:23:34.101Z,28.83
2019-05-19T09:26:02.268Z,25.90
2019-05-19T09:28:30.390Z,24.53
2019-05-19T09:30:58.426Z,25.67
2019-05-19T09:33:26.485Z,26.60
2019-05-19T09:35:54.593Z,23.67
2019-05-19T09:38:22.637Z,25.37
2019-05-19T09:40:50.704Z,24.00
2019-05-19T09:43:18.798Z,24.70
2019-05-19T09:45:46.836Z,23.77
2019-05-19T09:48:15.125Z,22.77
2019-05-19T09:50:43.502Z,21.80
2019-05-19T09:53:11.527Z,20.50
2019-05-19T09:55:39.643Z,19.30
2019-05-19T09:58:07.768Z,22.47
2019-05-19T10:00:35.954Z,21.60
2019-05-19T10:03:04.273Z,20.00
2019-05-19T10:05:32.331Z,19.50
2019-05-19T10:08:00.324Z,21.50
2019-05-19T10:11:01.781Z,21.93
2019-05-19T10:13:29.878Z,20.90
2019-05-19T10:15:57.808Z,21.30
2019-05-19T10:18:25.854Z,20.87
2019-05-19T10:20:53.883Z,21.23
2019-05-19T10:23:21.919Z,19.17
2019-05-19T10:25:50.027Z,20.63
2019-05-19T10:28:18.105Z,20.50
2019-05-19T10:30:46.280Z,20.90
2019-05-19T10:33:14.342Z,20.53
2019-05-19T10:35:42.411Z,21.17
2019-05-19T10:38:10.498Z,20.30
2019-05-19T10:40:38.538Z,21.20
2019-05-19T10:43:06.666Z,21.20
2019-05-19T10:45:34.764Z,20.37
2019-05-19T10:48:02.884Z,18.90
2019-05-19T10:50:30.817Z,20.10
2019-05-19T10:52:58.901Z,19.13
2019-05-19T10:55:36.223Z,19.93
2019-05-19T10:57:56.541Z,19.73
2019-05-19T11:00:25.035Z,18.97
2019-05-19T11:02:53.089Z,18.87
2019-05-19T11:05:21.085Z,19.97
2019-05-19T11:07:49.133Z,21.43
2019-05-19T11:10:18.435Z,20.23
2019-05-19T11:12:47.042Z,21.30
2019-05-19T11:15:16.530Z,21.33
2019-05-19T11:17:46.234Z,22.53
2019-05-19T11:20:15.513Z,20.30
2019-05-19T11:22:44.268Z,19.17
2019-05-19T11:25:14.280Z,19.63
2019-05-19T11:27:44.696Z,19.53
2019-05-19T11:30:13.814Z,21.20
2019-05-19T11:32:42.506Z,20.03
2019-05-19T11:35:11.362Z,19.13
2019-05-19T11:37:39.421Z,20.50
2019-05-19T11:40:07.354Z,20.07
2019-05-19T11:42:35.404Z,19.20
2019-05-19T11:45:03.352Z,21.67
2019-05-19T11:47:31.366Z,19.90
2019-05-19T11:49:59.367Z,21.10
2019-05-19T11:52:27.437Z,18.90
2019-05-19T11:54:55.414Z,18.57
2019-05-19T11:57:23.349Z,17.80
2019-05-19T11:59:51.362Z,18.93
2019-05-19T12:02:19.395Z,18.67
2019-05-19T12:04:47.593Z,18.10
2019-05-19T12:07:15.665Z,19.37
2019-05-19T12:09:43.701Z,18.37
2019-05-19T12:12:11.594Z,17.87
2019-05-19T12:14:39.995Z,17.70
2019-05-19T12:17:08.190Z,19.17
2019-05-19T12:19:36.325Z,18.17
2019-05-19T12:22:04.371Z,18.00
2019-05-19T12:24:32.353Z,18.57
2019-05-19T12:27:00.327Z,18.33
2019-05-19T12:29:28.370Z,17.60
2019-05-19T12:31:56.358Z,17.20
2019-05-19T12:34:24.319Z,16.67
2019-05-19T12:36:52.332Z,17.57
2019-05-19T12:39:20.378Z,18.90
2019-05-19T12:41:48.460Z,18.40
2019-05-19T12:44:16.524Z,18.87
2019-05-19T12:46:44.509Z,19.30
2019-05-19T12:49:12.456Z,18.57
2019-05-19T12:51:40.372Z,19.10
2019-05-19T12:54:09.230Z,20.87
2019-05-19T12:56:40.087Z,17.90
2019-05-19T12:59:06.932Z,20.50
2019-05-19T13:01:35.070Z,20.67
2019-05-19T13:04:03.052Z,19.87
2019-05-19T13:06:31.109Z,22.57
2019-05-19T13:08:59.072Z,22.03
2019-05-19T13:11:27.056Z,23.70
2019-05-19T13:13:55.097Z,22.90
2019-05-19T13:16:23.072Z,21.77
2019-05-19T13:18:51.052Z,22.03
2019-05-19T13:21:19.061Z,23.17
2019-05-19T13:23:47.037Z,22.33
2019-05-19T13:26:15.077Z,23.30
2019-05-19T13:28:43.172Z,21.53
2019-05-19T13:31:11.160Z,22.07
2019-05-19T13:33:39.200Z,20.63
2019-05-19T13:36:07.293Z,19.63
2019-05-19T13:38:35.337Z,20.97
2019-05-19T13:41:03.591Z,20.87
2019-05-19T13:43:31.611Z,16.60
2019-05-19T13:45:59.649Z,19.57
2019-05-19T13:48:27.710Z,18.40
2019-05-19T13:50:55.662Z,18.90
2019-05-19T13:53:23.992Z,23.20
2019-05-19T13:55:51.913Z,22.80
2019-05-19T13:58:19.929Z,23.07
2019-05-19T14:00:47.872Z,20.17
2019-05-19T14:03:15.955Z,19.27
2019-05-19T14:05:44.077Z,19.03
2019-05-19T14:08:12.114Z,19.97
2019-05-19T14:10:40.176Z,18.53
2019-05-19T14:13:08.240Z,17.27
2019-05-19T14:15:36.281Z,16.20
2019-05-19T14:18:04.591Z,29.60
2019-05-19T14:20:32.799Z,17.80
2019-05-19T14:23:00.706Z,17.83
2019-05-19T14:25:28.664Z,18.00
2019-05-19T14:27:56.801Z,15.87
2019-05-19T14:30:25.834Z,18.53
2019-05-19T14:32:54.071Z,16.80
2019-05-19T14:35:22.381Z,17.67
2019-05-19T14:37:50.379Z,16.03
2019-05-19T14:40:18.780Z,16.73
2019-05-19T14:42:53.697Z,16.50
2019-05-19T14:45:21.673Z,16.07
2019-05-19T14:47:49.725Z,14.87
2019-05-19T14:50:17.846Z,18.60
2019-05-19T14:52:45.849Z,17.80
2019-05-19T14:55:13.805Z,18.90
2019-05-19T14:57:45.338Z,18.00
2019-05-19T15:00:11.840Z,17.00
2019-05-19T15:02:39.853Z,17.70
2019-05-19T15:05:07.880Z,38.67
2019-05-19T15:07:35.922Z,20.57
2019-05-19T15:10:04.020Z,18.80
2019-05-19T15:12:32.084Z,18.73
2019-05-19T15:15:00.057Z,18.60
2019-05-19T15:17:28.136Z,18.40
2019-05-19T15:19:56.166Z,17.77
2019-05-19T15:22:24.184Z,18.20
2019-05-19T15:24:52.228Z,19.40
2019-05-19T15:27:20.223Z,18.70
2019-05-19T15:29:48.340Z,18.00
2019-05-19T15:32:16.556Z,17.97
2019-05-19T15:34:44.624Z,19.57
2019-05-19T15:37:12.601Z,18.80
2019-05-19T15:39:40.545Z,18.43
2019-05-19T15:42:08.513Z,18.57
2019-05-19T15:44:36.507Z,19.10
2019-05-19T15:47:04.553Z,19.30
2019-05-19T15:49:32.581Z,20.80
2019-05-19T15:52:04.178Z,19.40
2019-05-19T15:54:30.335Z,21.00
2019-05-19T15:56:58.711Z,19.93
2019-05-19T15:59:26.676Z,18.37
2019-05-19T16:01:54.704Z,21.07
2019-05-19T16:04:22.693Z,22.07
2019-05-19T16:06:50.765Z,21.67
2019-05-19T16:09:18.873Z,20.17
2019-05-19T16:11:46.950Z,20.60
2019-05-19T16:14:14.923Z,20.90
2019-05-19T16:16:42.943Z,20.20
2019-05-19T16:19:10.974Z,21.03
2019-05-19T16:21:38.998Z,20.03
2019-05-19T16:24:07.095Z,22.10
2019-05-19T16:26:35.037Z,22.10
2019-05-19T16:29:03.119Z,23.20
2019-05-19T16:31:31.116Z,21.30
2019-05-19T16:33:59.174Z,20.60
2019-05-19T16:36:27.112Z,19.37
2019-05-19T16:38:55.101Z,17.27
2019-05-19T16:41:23.207Z,21.47
2019-05-19T16:43:51.353Z,19.97
2019-05-19T16:46:19.398Z,25.00
2019-05-19T16:48:47.401Z,21.07
2019-05-19T16:51:15.340Z,21.30
2019-05-19T16:53:45.037Z,20.83
2019-05-19T16:56:13.015Z,18.97
2019-05-19T16:58:45.326Z,17.87
2019-05-19T17:01:10.980Z,18.87
2019-05-19T17:03:38.905Z,19.33
2019-05-19T17:06:06.924Z,19.20
2019-05-19T17:08:34.948Z,18.77
2019-05-19T17:11:16.356Z,17.87
2019-05-19T17:13:32.634Z,19.40
2019-05-19T17:16:00.768Z,18.00
2019-05-19T17:18:28.854Z,20.67
2019-05-19T17:20:56.818Z,18.50
2019-05-19T17:23:24.854Z,19.50
2019-05-19T17:25:52.941Z,19.80
2019-05-19T17:28:21.427Z,17.80
2019-05-19T17:30:49.510Z,19.47
2019-05-19T17:33:17.518Z,18.10
2019-05-19T17:35:45.562Z,17.73
2019-05-19T17:38:13.639Z,17.00
2019-05-19T17:40:41.840Z,16.90
2019-05-19T17:43:09.866Z,17.87
2019-05-19T17:45:37.970Z,18.03
2019-05-19T17:48:10.152Z,18.43
2019-05-19T17:50:35.962Z,18.77
2019-05-19T17:53:04.490Z,21.10
2019-05-19T17:55:33.604Z,18.67
2019-05-19T17:58:02.300Z,19.43
2019-05-19T18:00:34.928Z,18.60
2019-05-19T18:03:02.933Z,18.33
2019-05-19T18:05:30.953Z,19.73
2019-05-19T18:07:59.001Z,19.03
2019-05-19T18:10:27.439Z,20.53
2019-05-19T18:12:55.597Z,19.30
2019-05-19T18:15:23.632Z,19.00
2019-05-19T18:17:51.698Z,17.70
2019-05-19T18:20:23.777Z,18.80
2019-05-19T18:22:49.903Z,19.20
2019-05-19T18:25:17.933Z,17.63
2019-05-19T18:27:45.914Z,18.63
2019-05-19T18:30:14.757Z,17.20
2019-05-19T18:32:42.726Z,17.50
2019-05-19T18:35:10.733Z,26.40
2019-05-19T18:37:38.702Z,31.27
2019-05-19T18:40:07.142Z,31.27
2019-05-19T18:42:35.489Z,26.87
2019-05-19T18:45:03.574Z,20.50
2019-05-19T18:47:31.475Z,20.23
2019-05-19T18:49:59.480Z,19.80
2019-05-19T18:52:27.429Z,21.13
2019-05-19T18:54:55.390Z,20.13
2019-05-19T18:57:23.447Z,19.80
2019-05-19T18:59:51.457Z,19.17
2019-05-19T19:02:19.508Z,18.20
2019-05-19T19:04:47.512Z,19.30
2019-05-19T19:07:15.449Z,19.87
2019-05-19T19:09:43.435Z,19.00
2019-05-19T19:12:11.587Z,20.00
2019-05-19T19:14:39.582Z,20.70
2019-05-19T19:17:07.559Z,19.03
2019-05-19T19:19:35.520Z,17.60
2019-05-19T19:22:03.654Z,18.30
2019-05-19T19:24:31.666Z,17.30
2019-05-19T19:26:59.622Z,19.10
2019-05-19T19:29:27.610Z,18.80
2019-05-19T19:31:55.640Z,18.23
2019-05-19T19:34:24.470Z,18.90
2019-05-19T19:36:52.602Z,19.30
2019-05-19T19:39:20.725Z,19.00
2019-05-19T19:41:48.753Z,17.70
2019-05-19T19:44:16.748Z,17.30
2019-05-19T19:46:44.846Z,17.73
2019-05-19T19:49:12.898Z,19.60
2019-05-19T19:51:40.943Z,18.60
2019-05-19T19:54:08.944Z,18.00
2019-05-19T19:56:36.949Z,18.10
2019-05-19T19:59:04.866Z,18.30
2019-05-19T20:01:32.851Z,19.67
2019-05-19T20:04:00.996Z,19.20
2019-05-19T20:06:29.000Z,19.23
2019-05-19T20:08:57.191Z,19.07
2019-05-19T20:11:25.622Z,19.50
2019-05-19T20:13:53.625Z,21.10
2019-05-19T20:16:21.707Z,18.70
2019-05-19T20:18:50.171Z,19.10
2019-05-19T20:21:18.264Z,19.70
2019-05-19T20:23:46.198Z,21.37
2019-05-19T20:26:14.162Z,22.00
2019-05-19T20:28:42.339Z,21.40
2019-05-19T20:31:10.419Z,22.97
2019-05-19T20:33:38.350Z,23.40
2019-05-19T20:36:06.372Z,24.30
2019-05-19T20:38:34.407Z,21.67
2019-05-19T20:41:02.838Z,22.00
2019-05-19T20:43:30.868Z,20.83
2019-05-19T20:45:59.272Z,22.93
2019-05-19T20:48:27.253Z,22.10
2019-05-19T20:50:55.299Z,22.43
2019-05-19T20:53:23.240Z,21.30
2019-05-19T20:55:51.157Z,23.03
2019-05-19T20:58:19.213Z,22.60
2019-05-19T21:00:50.417Z,23.00
2019-05-19T21:03:16.958Z,23.60
2019-05-19T21:05:44.983Z,23.47
2019-05-19T21:08:13.076Z,22.10
2019-05-19T21:10:41.117Z,22.00
2019-05-19T21:13:09.063Z,22.50
2019-05-19T21:15:37.038Z,23.47
2019-05-19T21:18:05.160Z,23.53
2019-05-19T21:20:33.423Z,22.23
2019-05-19T21:23:01.542Z,22.10
2019-05-19T21:25:29.519Z,21.77
2019-05-19T21:27:57.630Z,22.10
2019-05-19T21:30:25.677Z,22.70
2019-05-19T21:32:53.790Z,21.53
2019-05-19T21:35:21.925Z,22.23
2019-05-19T21:37:49.994Z,19.83
2019-05-19T21:40:18.150Z,22.10
2019-05-19T21:42:46.117Z,22.23
2019-05-19T21:45:14.502Z,21.33
2019-05-19T21:47:42.480Z,21.23
2019-05-19T21:50:10.547Z,21.93
2019-05-19T21:52:38.586Z,21.30
2019-05-19T21:55:07.711Z,22.10
2019-05-19T21:57:35.686Z,21.73
2019-05-19T22:00:03.769Z,23.03
2019-05-19T22:02:32.339Z,21.60
2019-05-19T22:05:01.680Z,21.80
2019-05-19T22:07:51.791Z,21.83
2019-05-19T22:10:19.874Z,21.73
2019-05-19T22:12:48.096Z,21.20
2019-05-19T22:15:16.229Z,22.83
2019-05-19T22:17:44.536Z,22.03
2019-05-19T22:20:12.683Z,22.50
2019-05-19T22:22:40.935Z,23.07
2019-05-19T22:25:09.036Z,21.57
2019-05-19T22:27:37.020Z,21.93
2019-05-19T22:30:09.044Z,23.97
2019-05-19T22:32:37.084Z,25.20
2019-05-19T22:35:05.481Z,24.90
2019-05-19T22:37:33.590Z,24.07
2019-05-19T22:40:01.750Z,22.97
2019-05-19T22:42:29.828Z,23.90
2019-05-19T22:44:57.847Z,24.40
2019-05-19T22:47:25.884Z,25.23
2019-05-19T22:49:53.860Z,24.50
2019-05-19T22:52:21.933Z,23.57
2019-05-19T22:54:49.908Z,23.83
2019-05-19T22:57:18.215Z,23.70
2019-05-19T22:59:46.402Z,22.80
2019-05-19T23:02:14.416Z,24.20
2019-05-19T23:04:42.485Z,24.33
2019-05-19T23:07:10.452Z,23.73
2019-05-19T23:09:38.507Z,25.37
2019-05-19T23:12:06.616Z,23.27
2019-05-19T23:14:34.674Z,23.50
2019-05-19T23:17:02.823Z,23.90
2019-05-19T23:19:30.809Z,24.57
2019-05-19T23:21:58.756Z,25.07
2019-05-19T23:24:26.751Z,24.73
2019-05-19T23:26:54.799Z,26.57
2019-05-19T23:29:22.837Z,23.93
2019-05-19T23:31:50.865Z,26.40
2019-05-19T23:34:18.840Z,25.07
2019-05-19T23:36:46.811Z,26.10
2019-05-19T23:39:14.806Z,25.70
2019-05-19T23:41:42.885Z,27.13
2019-05-19T23:44:10.947Z,25.07
2019-05-19T23:46:38.969Z,25.73
2019-05-19T23:49:06.964Z,26.97
2019-05-19T23:51:34.911Z,25.53
2019-05-19T23:54:03.025Z,24.40
2019-05-19T23:56:31.064Z,23.20
2019-05-19T23:58:59.035Z,23.90
